createdAt,value
2017-12-11T00:00:48.377Z,80.79
2017-12-11T00:03:15.757Z,80.69
2017-12-11T00:05:43.150Z,81.20
2017-12-11T00:08:10.570Z,81.23
2017-12-11T00:10:37.979Z,81.40
2017-12-11T00:13:05.398Z,81.57
2017-12-11T00:15:32.822Z,81.96
2017-12-11T00:18:00.270Z,82.19
2017-12-11T00:20:27.695Z,82.35
2017-12-11T00:22:55.126Z,82.42
2017-12-11T00:25:22.524Z,82.82
2017-12-11T00:27:49.943Z,83.06
2017-12-11T00:30:17.353Z,82.91
2017-12-11T00:32:44.806Z,82.80
2017-12-11T00:35:12.189Z,82.96
2017-12-11T00:37:39.615Z,83.01
2017-12-11T00:40:06.997Z,83.35
2017-12-11T00:42:34.447Z,83.18
2017-12-11T00:45:02.048Z,83.17
2017-12-11T00:47:29.865Z,83.26
2017-12-11T00:49:57.285Z,83.06
2017-12-11T00:52:24.730Z,82.61
2017-12-11T00:54:52.198Z,83.09
2017-12-11T00:57:19.930Z,83.04
2017-12-11T00:59:47.383Z,83.02
2017-12-11T01:02:14.815Z,82.73
2017-12-11T01:04:42.289Z,83.27
2017-12-11T01:07:09.673Z,82.85
2017-12-11T01:09:37.103Z,83.15
2017-12-11T01:12:04.590Z,83.50
2017-12-11T01:14:32.171Z,82.77
2017-12-11T01:16:59.932Z,82.19
2017-12-11T01:19:27.582Z,82.97
2017-12-11T01:21:54.984Z,82.47
2017-12-11T01:24:22.410Z,83.00
2017-12-11T01:26:49.888Z,83.06
2017-12-11T01:29:17.317Z,83.80
2017-12-11T01:31:44.718Z,84.10
2017-12-11T01:34:12.162Z,84.43
2017-12-11T01:36:39.602Z,84.47
2017-12-11T01:39:07.031Z,84.86
2017-12-11T01:41:34.439Z,84.91
2017-12-11T01:44:01.897Z,84.62
2017-12-11T01:46:29.411Z,84.51
2017-12-11T01:48:56.850Z,84.58
2017-12-11T01:51:24.237Z,84.63
2017-12-11T01:53:51.662Z,84.58
2017-12-11T01:56:19.050Z,84.86
2017-12-11T01:58:46.498Z,84.82
2017-12-11T02:01:13.900Z,84.75
2017-12-11T02:03:41.291Z,85.13
2017-12-11T02:06:08.710Z,85.22
2017-12-11T02:08:36.100Z,84.77
2017-12-11T02:11:03.594Z,84.35
2017-12-11T02:13:31.083Z,84.51
2017-12-11T02:15:59.086Z,84.99
2017-12-11T02:18:26.495Z,85.09
2017-12-11T02:20:53.959Z,85.17
2017-12-11T02:23:21.426Z,85.36
2017-12-11T02:25:48.866Z,85.36
2017-12-11T02:28:16.338Z,85.24
2017-12-11T02:30:43.786Z,85.24
2017-12-11T02:33:11.173Z,85.37
2017-12-11T02:35:38.598Z,84.93
2017-12-11T02:38:05.995Z,85.14
2017-12-11T02:40:33.470Z,85.38
2017-12-11T02:43:01.005Z,85.06
2017-12-11T02:45:28.612Z,84.80
2017-12-11T02:47:55.966Z,84.69
2017-12-11T02:50:23.385Z,84.10
2017-12-11T02:52:50.780Z,84.16
2017-12-11T02:55:18.234Z,84.21
2017-12-11T02:57:45.625Z,84.22
2017-12-11T03:00:13.015Z,84.35
2017-12-11T03:02:40.429Z,84.41
2017-12-11T03:05:07.833Z,84.23
2017-12-11T03:07:35.251Z,84.27
2017-12-11T03:10:02.744Z,84.29
2017-12-11T03:12:30.192Z,84.00
2017-12-11T03:14:57.607Z,83.99
2017-12-11T03:17:25.025Z,83.95
2017-12-11T03:19:52.431Z,83.89
2017-12-11T03:22:19.859Z,84.08
2017-12-11T03:24:47.273Z,83.90
2017-12-11T03:27:14.694Z,83.86
2017-12-11T03:29:42.096Z,83.05
2017-12-11T03:32:09.591Z,82.91
2017-12-11T03:34:36.987Z,83.11
2017-12-11T03:37:04.419Z,82.86
2017-12-11T03:39:31.803Z,82.43
2017-12-11T03:41:59.270Z,82.22
2017-12-11T03:44:26.666Z,81.94
2017-12-11T03:46:54.087Z,82.08
2017-12-11T03:49:21.478Z,82.22
2017-12-11T03:51:48.905Z,82.32
2017-12-11T03:54:16.313Z,82.03
2017-12-11T03:56:43.746Z,82.07
2017-12-11T03:59:11.225Z,81.88
2017-12-11T04:01:38.659Z,81.79
2017-12-11T04:04:06.046Z,82.05
2017-12-11T04:06:33.535Z,82.12
2017-12-11T04:09:01.014Z,81.90
2017-12-11T04:11:28.468Z,82.02
2017-12-11T04:13:55.890Z,82.14
2017-12-11T04:16:23.318Z,82.44
2017-12-11T04:18:50.742Z,82.89
2017-12-11T04:21:18.134Z,83.23
2017-12-11T04:23:45.567Z,83.50
2017-12-11T04:26:12.960Z,83.73
2017-12-11T04:28:40.377Z,83.81
2017-12-11T04:31:07.766Z,83.74
2017-12-11T04:33:35.195Z,83.64
2017-12-11T04:36:02.638Z,83.80
2017-12-11T04:38:30.194Z,84.66
2017-12-11T04:40:57.688Z,85.22
2017-12-11T04:43:25.177Z,85.92
2017-12-11T04:45:52.519Z,85.74
2017-12-11T04:48:19.944Z,86.52
2017-12-11T04:50:47.364Z,86.82
2017-12-11T04:53:14.791Z,87.37
2017-12-11T04:55:42.190Z,87.38
2017-12-11T04:58:09.613Z,87.74
2017-12-11T05:00:37.009Z,87.73
2017-12-11T05:03:04.470Z,88.44
2017-12-11T05:05:31.864Z,88.55
2017-12-11T05:07:59.318Z,88.37
2017-12-11T05:10:26.706Z,88.64
2017-12-11T05:12:54.102Z,88.67
2017-12-11T05:15:21.527Z,88.63
2017-12-11T05:17:48.935Z,88.85
2017-12-11T05:20:16.374Z,89.16
2017-12-11T05:22:43.758Z,89.17
2017-12-11T05:25:11.182Z,89.17
2017-12-11T05:27:38.586Z,89.10
2017-12-11T05:30:06.019Z,89.14
2017-12-11T05:32:33.477Z,89.35
2017-12-11T05:35:00.895Z,89.08
2017-12-11T05:37:28.319Z,88.47
2017-12-11T05:39:55.749Z,88.78
2017-12-11T05:42:23.143Z,88.69
2017-12-11T05:44:50.614Z,89.21
2017-12-11T05:47:18.022Z,89.41
2017-12-11T05:49:45.450Z,89.41
2017-12-11T05:52:12.851Z,89.42
2017-12-11T05:54:40.282Z,88.85
2017-12-11T05:57:07.693Z,88.25
2017-12-11T05:59:35.214Z,88.52
2017-12-11T06:02:02.618Z,88.66
2017-12-11T06:04:30.155Z,89.14
2017-12-11T06:06:57.562Z,88.93
2017-12-11T06:09:25.003Z,88.85
2017-12-11T06:11:52.395Z,89.07
2017-12-11T06:14:19.827Z,88.83
2017-12-11T06:16:47.257Z,89.33
2017-12-11T06:19:14.685Z,90.04
2017-12-11T06:21:42.147Z,89.99
2017-12-11T06:24:09.541Z,89.76
2017-12-11T06:26:36.994Z,89.62
2017-12-11T06:29:04.392Z,90.44
2017-12-11T06:31:31.942Z,90.38
2017-12-11T06:33:59.374Z,91.00
2017-12-11T06:36:26.856Z,90.95
2017-12-11T06:38:54.331Z,90.81
2017-12-11T06:41:21.786Z,90.81
2017-12-11T06:43:49.183Z,91.09
2017-12-11T06:46:16.639Z,91.61
2017-12-11T06:48:44.098Z,91.24
2017-12-11T06:51:11.540Z,91.42
2017-12-11T06:53:38.931Z,91.59
2017-12-11T06:56:06.369Z,92.50
2017-12-11T06:58:33.805Z,91.92
2017-12-11T07:01:01.340Z,92.02
2017-12-11T07:03:28.854Z,92.22
2017-12-11T07:05:56.284Z,91.67
2017-12-11T07:08:23.706Z,92.59
2017-12-11T07:10:51.237Z,92.61
2017-12-11T07:13:18.715Z,93.03
2017-12-11T07:15:46.285Z,92.49
2017-12-11T07:18:13.677Z,92.28
2017-12-11T07:20:41.115Z,92.91
2017-12-11T07:23:08.506Z,92.17
2017-12-11T07:25:36.055Z,92.39
2017-12-11T07:28:03.538Z,92.11
2017-12-11T07:30:30.978Z,92.57
2017-12-11T07:32:58.539Z,92.46
2017-12-11T07:35:26.030Z,92.75
2017-12-11T07:37:53.524Z,92.10
2017-12-11T07:40:20.994Z,92.27
2017-12-11T07:42:48.438Z,92.20
2017-12-11T07:45:15.931Z,92.76
2017-12-11T07:47:43.564Z,92.14
2017-12-11T07:50:10.965Z,92.07
2017-12-11T07:52:38.431Z,91.56
2017-12-11T07:55:05.824Z,91.49
2017-12-11T07:57:33.749Z,92.00
2017-12-11T08:00:06.453Z,91.63
2017-12-11T08:02:33.951Z,91.80
2017-12-11T08:05:01.374Z,92.41
2017-12-11T08:07:28.831Z,91.46
2017-12-11T08:09:56.257Z,91.64
2017-12-11T08:12:23.718Z,91.36
2017-12-11T08:14:51.120Z,91.33
2017-12-11T08:17:18.746Z,91.74
2017-12-11T08:19:46.175Z,91.40
2017-12-11T08:22:13.643Z,91.44
2017-12-11T08:24:41.034Z,91.37
2017-12-11T08:27:08.559Z,91.44
2017-12-11T08:29:35.956Z,91.04
2017-12-11T08:32:03.392Z,90.50
2017-12-11T08:34:30.805Z,90.43
2017-12-11T08:36:58.355Z,90.06
2017-12-11T08:39:25.819Z,90.08
2017-12-11T08:41:53.247Z,90.57
2017-12-11T08:44:20.702Z,90.81
2017-12-11T08:46:48.116Z,90.73
2017-12-11T08:49:15.559Z,90.77
2017-12-11T08:51:42.950Z,90.60
2017-12-11T08:54:10.386Z,91.02
2017-12-11T08:56:37.795Z,91.31
2017-12-11T08:59:05.250Z,91.04
2017-12-11T09:01:32.697Z,91.22
2017-12-11T09:04:00.203Z,90.92
2017-12-11T09:06:27.689Z,91.00
2017-12-11T09:08:55.130Z,90.95
2017-12-11T09:11:22.602Z,90.67
2017-12-11T09:13:50.064Z,90.88
2017-12-11T09:16:17.513Z,90.75
2017-12-11T09:18:44.939Z,90.95
2017-12-11T09:21:12.382Z,90.79
2017-12-11T09:23:39.810Z,90.86
2017-12-11T09:26:07.210Z,90.77
2017-12-11T09:28:34.674Z,91.04
2017-12-11T09:31:02.130Z,90.42
2017-12-11T09:33:29.565Z,90.37
2017-12-11T09:35:56.999Z,90.00
2017-12-11T09:38:24.434Z,89.62
2017-12-11T09:40:51.928Z,89.79
2017-12-11T09:43:19.372Z,89.26
2017-12-11T09:45:46.773Z,89.25
2017-12-11T09:48:14.246Z,89.36
2017-12-11T09:50:41.620Z,89.14
2017-12-11T09:53:09.046Z,88.52
2017-12-11T09:55:36.546Z,87.82
2017-12-11T09:58:03.947Z,88.08
2017-12-11T10:00:31.419Z,86.90
2017-12-11T10:02:58.842Z,86.73
2017-12-11T10:05:26.283Z,86.40
2017-12-11T10:07:53.678Z,86.77
2017-12-11T10:10:21.155Z,86.29
2017-12-11T10:12:48.646Z,86.58
2017-12-11T10:15:16.105Z,85.96
2017-12-11T10:17:43.500Z,85.68
2017-12-11T10:20:10.929Z,86.47
2017-12-11T10:22:38.326Z,86.70
2017-12-11T10:25:05.907Z,86.35
2017-12-11T10:27:33.311Z,85.85
2017-12-11T10:30:00.778Z,85.52
2017-12-11T10:32:29.038Z,85.73
2017-12-11T10:34:56.483Z,85.32
2017-12-11T10:37:23.950Z,85.02
2017-12-11T10:39:51.386Z,85.35
2017-12-11T10:42:18.828Z,85.01
2017-12-11T10:44:46.295Z,84.35
2017-12-11T10:47:13.682Z,84.81
2017-12-11T10:49:41.262Z,85.22
2017-12-11T10:52:08.660Z,84.90
2017-12-11T10:54:36.212Z,84.17
2017-12-11T10:57:03.639Z,84.57
2017-12-11T10:59:31.192Z,85.29
2017-12-11T11:01:58.732Z,83.53
2017-12-11T11:04:26.277Z,84.54
2017-12-11T11:06:53.734Z,83.92
2017-12-11T11:09:21.206Z,84.35
2017-12-11T11:11:48.667Z,82.77
2017-12-11T11:14:16.058Z,83.80
2017-12-11T11:16:43.623Z,83.39
2017-12-11T11:19:10.997Z,82.52
2017-12-11T11:21:39.332Z,82.25
2017-12-11T11:24:06.722Z,83.33
2017-12-11T11:26:34.160Z,82.47
2017-12-11T11:29:01.654Z,81.93
2017-12-11T11:31:29.108Z,83.14
2017-12-11T11:33:56.503Z,82.14
2017-12-11T11:36:23.942Z,82.74
2017-12-11T11:38:51.517Z,82.39
2017-12-11T11:41:18.990Z,82.33
2017-12-11T11:43:46.394Z,82.26
2017-12-11T11:46:13.853Z,81.45
2017-12-11T11:48:41.327Z,81.27
2017-12-11T11:51:08.781Z,81.03
2017-12-11T11:53:37.157Z,81.89
2017-12-11T11:56:04.631Z,83.95
2017-12-11T11:58:32.040Z,83.93
2017-12-11T12:00:59.489Z,83.13
2017-12-11T12:03:26.889Z,83.87
2017-12-11T12:05:54.306Z,84.78
2017-12-11T12:08:21.773Z,84.82
2017-12-11T12:10:49.246Z,84.09
2017-12-11T12:13:16.739Z,84.52
2017-12-11T12:15:45.112Z,84.38
2017-12-11T12:18:12.584Z,84.94
2017-12-11T12:20:39.969Z,85.14
2017-12-11T12:23:07.418Z,84.53
2017-12-11T12:25:34.890Z,84.65
2017-12-11T12:28:02.498Z,85.55
2017-12-11T12:30:30.248Z,85.31
2017-12-11T12:32:58.131Z,85.61
2017-12-11T12:35:25.557Z,85.38
2017-12-11T12:37:53.039Z,84.96
2017-12-11T12:40:20.438Z,85.72
2017-12-11T12:42:47.931Z,86.02
2017-12-11T12:45:15.335Z,85.24
2017-12-11T12:47:42.752Z,84.61
2017-12-11T12:50:10.148Z,84.67
2017-12-11T12:52:37.621Z,84.06
2017-12-11T12:55:05.015Z,84.93
2017-12-11T12:57:32.454Z,83.89
2017-12-11T12:59:59.883Z,84.61
2017-12-11T13:02:27.379Z,84.40
2017-12-11T13:04:54.775Z,84.30
2017-12-11T13:07:22.205Z,84.86
2017-12-11T13:09:49.622Z,85.53
2017-12-11T13:12:17.068Z,85.70
2017-12-11T13:14:44.459Z,85.26
2017-12-11T13:17:12.202Z,85.06
2017-12-11T13:19:39.610Z,85.11
2017-12-11T13:22:07.005Z,85.07
2017-12-11T13:24:34.447Z,84.70
2017-12-11T13:27:01.847Z,84.28
2017-12-11T13:29:29.337Z,84.45
2017-12-11T13:31:56.742Z,83.82
2017-12-11T13:34:24.182Z,84.01
2017-12-11T13:36:51.566Z,84.16
2017-12-11T13:39:19.044Z,85.18
2017-12-11T13:41:46.474Z,85.63
2017-12-11T13:44:13.907Z,85.63
2017-12-11T13:46:41.294Z,84.09
2017-12-11T13:49:08.727Z,84.64
2017-12-11T13:51:36.234Z,84.94
2017-12-11T13:54:03.676Z,85.04
2017-12-11T13:56:31.177Z,85.60
2017-12-11T13:58:58.672Z,85.45
2017-12-11T14:01:26.067Z,84.36
2017-12-11T14:03:53.584Z,84.41
2017-12-11T14:06:21.058Z,84.63
2017-12-11T14:08:48.522Z,83.54
2017-12-11T14:11:15.931Z,83.95
2017-12-11T14:13:44.814Z,85.20
2017-12-11T14:16:12.213Z,85.92
2017-12-11T14:18:39.660Z,85.69
2017-12-11T14:21:07.064Z,85.08
2017-12-11T14:23:34.579Z,84.97
2017-12-11T14:26:02.065Z,85.97
2017-12-11T14:28:29.685Z,85.08
2017-12-11T14:30:57.104Z,85.88
2017-12-11T14:33:24.492Z,85.81
2017-12-11T14:35:51.963Z,86.25
2017-12-11T14:38:19.378Z,86.71
2017-12-11T14:40:46.810Z,87.48
2017-12-11T14:43:14.198Z,87.70
2017-12-11T14:45:41.630Z,88.24
2017-12-11T14:48:09.029Z,89.05
2017-12-11T14:50:36.459Z,88.74
2017-12-11T14:53:03.924Z,88.77
2017-12-11T14:55:31.363Z,89.42
2017-12-11T14:57:58.930Z,89.81
2017-12-11T15:00:26.424Z,91.68
2017-12-11T15:02:53.811Z,86.85
2017-12-11T15:05:21.247Z,88.44
2017-12-11T15:07:48.655Z,89.39
2017-12-11T15:10:16.105Z,89.91
2017-12-11T15:12:43.566Z,90.08
2017-12-11T15:15:11.006Z,90.21
2017-12-11T15:17:38.398Z,90.41
2017-12-11T15:20:05.983Z,90.48
2017-12-11T15:22:33.478Z,90.67
2017-12-11T15:25:00.923Z,90.84
2017-12-11T15:27:28.379Z,91.02
2017-12-11T15:29:55.823Z,91.60
2017-12-11T15:32:23.334Z,91.80
2017-12-11T15:34:50.800Z,91.88
2017-12-11T15:37:18.207Z,91.88
2017-12-11T15:39:45.716Z,91.49
2017-12-11T15:42:13.139Z,91.04
2017-12-11T15:44:40.685Z,91.00
2017-12-11T15:47:08.075Z,89.86
2017-12-11T15:49:35.540Z,90.06
2017-12-11T15:52:03.006Z,89.72
2017-12-11T15:54:30.511Z,89.08
2017-12-11T15:56:58.075Z,88.62
2017-12-11T15:59:25.472Z,89.00
2017-12-11T16:01:52.932Z,88.67
2017-12-11T16:04:20.326Z,89.05
2017-12-11T16:06:47.813Z,89.47
2017-12-11T16:09:15.293Z,88.92
2017-12-11T16:11:42.843Z,88.81
2017-12-11T16:14:10.258Z,89.17
2017-12-11T16:16:37.740Z,89.55
2017-12-11T16:19:05.137Z,89.14
2017-12-11T16:21:32.570Z,88.74
2017-12-11T16:24:00.012Z,89.05
2017-12-11T16:26:27.481Z,88.53
2017-12-11T16:28:54.887Z,88.68
2017-12-11T16:31:26.020Z,88.94
2017-12-11T16:33:58.563Z,88.82
2017-12-11T16:36:31.298Z,88.92
2017-12-11T16:39:04.024Z,88.87
2017-12-11T16:41:36.058Z,88.56
2017-12-11T16:44:08.242Z,88.29
2017-12-11T16:46:40.415Z,87.95
2017-12-11T16:49:13.100Z,87.68
2017-12-11T16:51:45.807Z,87.53
2017-12-11T16:54:17.884Z,87.85
2017-12-11T16:56:45.414Z,87.96
2017-12-11T16:59:12.894Z,87.99
2017-12-11T17:01:40.595Z,87.64
2017-12-11T17:04:07.987Z,88.16
2017-12-11T17:06:35.546Z,87.84
2017-12-11T17:09:02.983Z,87.67
2017-12-11T17:11:30.451Z,87.83
2017-12-11T17:13:57.984Z,87.45
2017-12-11T17:16:25.558Z,87.28
2017-12-11T17:18:52.988Z,87.36
2017-12-11T17:21:20.418Z,87.60
2017-12-11T17:23:47.935Z,87.28
2017-12-11T17:26:15.365Z,87.20
2017-12-11T17:28:42.845Z,87.45
2017-12-11T17:31:10.243Z,86.71
2017-12-11T17:33:37.817Z,86.13
2017-12-11T17:36:05.220Z,86.52
2017-12-11T17:38:32.703Z,86.29
2017-12-11T17:41:00.123Z,86.22
2017-12-11T17:43:27.711Z,86.62
2017-12-11T17:45:55.144Z,85.63
2017-12-11T17:48:22.558Z,84.35
2017-12-11T17:50:50.002Z,84.70
2017-12-11T17:53:17.557Z,85.36
2017-12-11T17:55:44.963Z,85.13
2017-12-11T17:58:12.499Z,85.00
2017-12-11T18:00:39.968Z,85.06
2017-12-11T18:03:07.406Z,84.52
2017-12-11T18:05:34.815Z,84.80
2017-12-11T18:08:02.278Z,84.00
2017-12-11T18:10:29.783Z,83.97
2017-12-11T18:12:57.304Z,84.77
2017-12-11T18:15:24.725Z,84.51
2017-12-11T18:17:52.171Z,84.49
2017-12-11T18:20:19.558Z,84.62
2017-12-11T18:22:47.013Z,84.77
2017-12-11T18:25:14.397Z,84.69
2017-12-11T18:27:41.810Z,84.67
2017-12-11T18:30:09.277Z,85.06
2017-12-11T18:32:36.889Z,84.31
2017-12-11T18:35:04.310Z,84.21
2017-12-11T18:37:31.726Z,83.63
2017-12-11T18:39:59.220Z,83.59
2017-12-11T18:42:26.670Z,83.94
2017-12-11T18:44:54.132Z,83.81
2017-12-11T18:47:21.522Z,83.47
2017-12-11T18:49:49.071Z,82.95
2017-12-11T18:52:16.567Z,83.43
2017-12-11T18:54:44.024Z,83.69
2017-12-11T18:57:11.419Z,83.54
2017-12-11T18:59:38.855Z,82.96
2017-12-11T19:02:06.258Z,82.36
2017-12-11T19:04:33.711Z,82.46
2017-12-11T19:07:01.115Z,82.84
2017-12-11T19:09:28.606Z,82.62
2017-12-11T19:11:55.993Z,83.21
2017-12-11T19:14:23.461Z,82.60
2017-12-11T19:16:50.848Z,83.11
2017-12-11T19:19:18.284Z,82.47
2017-12-11T19:21:45.696Z,82.34
2017-12-11T19:24:13.130Z,82.89
2017-12-11T19:26:40.525Z,82.47
2017-12-11T19:29:07.985Z,82.45
2017-12-11T19:31:35.374Z,82.23
2017-12-11T19:34:02.774Z,82.58
2017-12-11T19:36:30.226Z,82.70
2017-12-11T19:38:57.654Z,82.26
2017-12-11T19:41:25.106Z,82.15
2017-12-11T19:43:52.487Z,82.28
2017-12-11T19:46:19.929Z,81.47
2017-12-11T19:48:47.334Z,81.69
2017-12-11T19:51:14.799Z,80.69
2017-12-11T19:53:42.202Z,80.99
2017-12-11T19:56:09.642Z,80.37
2017-12-11T19:58:37.112Z,80.66
2017-12-11T20:01:04.546Z,79.37
2017-12-11T20:03:31.955Z,78.44
2017-12-11T20:05:59.411Z,79.19
2017-12-11T20:08:26.854Z,78.86
2017-12-11T20:10:54.299Z,79.64
2017-12-11T20:13:21.763Z,78.79
2017-12-11T20:15:49.199Z,78.43
2017-12-11T20:18:16.599Z,78.55
2017-12-11T20:20:44.039Z,77.48
2017-12-11T20:23:11.442Z,78.66
2017-12-11T20:25:38.962Z,79.14
2017-12-11T20:28:06.356Z,78.57
2017-12-11T20:30:33.899Z,78.39
2017-12-11T20:33:01.311Z,78.71
2017-12-11T20:35:28.882Z,78.75
2017-12-11T20:37:56.266Z,77.95
2017-12-11T20:40:23.695Z,78.24
2017-12-11T20:42:51.140Z,78.03
2017-12-11T20:45:18.567Z,77.69
2017-12-11T20:47:46.094Z,77.56
2017-12-11T20:50:13.487Z,77.96
2017-12-11T20:52:41.033Z,77.47
2017-12-11T20:55:08.468Z,77.66
2017-12-11T20:57:35.940Z,77.50
2017-12-11T21:00:03.350Z,77.61
2017-12-11T21:02:30.838Z,77.31
2017-12-11T21:04:58.323Z,77.39
2017-12-11T21:07:25.776Z,77.39
2017-12-11T21:09:53.166Z,76.90
2017-12-11T21:12:20.622Z,77.35
2017-12-11T21:14:48.050Z,76.80
2017-12-11T21:17:15.668Z,76.72
2017-12-11T21:19:43.103Z,76.77
2017-12-11T21:22:10.589Z,76.64
2017-12-11T21:24:37.974Z,76.03
2017-12-11T21:27:05.452Z,76.62
2017-12-11T21:29:32.922Z,76.37
2017-12-11T21:32:00.405Z,76.12
2017-12-11T21:34:27.837Z,76.57
2017-12-11T21:36:55.270Z,76.68
2017-12-11T21:39:22.754Z,76.49
2017-12-11T21:41:50.232Z,75.99
2017-12-11T21:44:17.627Z,76.30
2017-12-11T21:46:45.078Z,76.22
2017-12-11T21:49:12.558Z,76.33
2017-12-11T21:51:39.978Z,76.47
2017-12-11T21:54:07.519Z,76.11
2017-12-11T21:56:34.931Z,76.35
2017-12-11T21:59:02.402Z,76.07
2017-12-11T22:01:29.954Z,76.28
2017-12-11T22:03:57.467Z,75.59
2017-12-11T22:06:24.926Z,75.58
2017-12-11T22:08:52.404Z,75.85
2017-12-11T22:11:19.839Z,76.10
2017-12-11T22:13:47.513Z,76.63
2017-12-11T22:16:14.914Z,76.50
2017-12-11T22:18:42.393Z,76.26
2017-12-11T22:21:09.795Z,76.07
2017-12-11T22:23:37.251Z,76.69
2017-12-11T22:26:04.647Z,76.68
2017-12-11T22:28:32.113Z,76.74
2017-12-11T22:30:59.658Z,76.85
2017-12-11T22:33:27.142Z,76.53
2017-12-11T22:35:54.556Z,77.13
2017-12-11T22:38:21.979Z,76.79
2017-12-11T22:40:49.371Z,76.60
2017-12-11T22:43:16.822Z,76.76
2017-12-11T22:45:44.218Z,77.41
2017-12-11T22:48:11.690Z,77.00
2017-12-11T22:50:39.089Z,76.84
2017-12-11T22:53:06.509Z,76.98
2017-12-11T22:55:34.033Z,77.31
2017-12-11T22:58:01.511Z,76.59
2017-12-11T23:00:30.544Z,76.63
2017-12-11T23:02:58.026Z,76.96
2017-12-11T23:05:25.450Z,76.61
2017-12-11T23:07:52.906Z,76.69
2017-12-11T23:10:20.370Z,76.39
2017-12-11T23:12:47.884Z,76.68
2017-12-11T23:15:15.313Z,76.35
2017-12-11T23:17:42.699Z,76.38
2017-12-11T23:20:10.145Z,75.97
2017-12-11T23:22:37.641Z,76.17
2017-12-11T23:25:05.071Z,75.96
2017-12-11T23:27:32.475Z,75.91
2017-12-11T23:30:00.859Z,76.39
2017-12-11T23:32:28.271Z,75.91
2017-12-11T23:34:56.721Z,76.25
2017-12-11T23:37:24.251Z,76.51
2017-12-11T23:39:51.677Z,75.69
2017-12-11T23:42:19.102Z,75.73
2017-12-11T23:44:46.557Z,75.11
2017-12-11T23:47:13.946Z,75.44
2017-12-11T23:49:41.407Z,74.67
2017-12-11T23:52:08.815Z,74.51
2017-12-11T23:54:36.243Z,73.91
2017-12-11T23:57:03.646Z,73.13
2017-12-11T23:59:31.219Z,73.31
